NY Terminal Aviation Weather Discussion (AFD) - Prepared: 1258 AM EDT SUN OCT 26 2014
A STRONG COLD FRONTAL PASSAGE TONIGHT...WITH HIGH PRESSURE
BUILDING TO THE SW ON SUNDAY. VFR BUT WINDY CONDS. 

SW WINDS VEER TO W BTWN 03-06Z TONIGHT WITH FROPA...THEN WNW
TOWARDS DAYBREAK. GUSTY AT METRO AND COASTAL TERMINALS.

ISOLATED SHRA ACTIVITY POSSIBLE WITH FRONTAL PASSAGE AND THEN
TO AWARDS DAYBREAK WITH UPPER DISTURBANCE.

WNW WINDS 15 TO 20 KT WITH GUSTS AROUND 30 KT ON SUNDAY.
WINDS COULD PEAK 20-25 WITH GUSTS TO 35 KT SUN AFT FOR METRO
TERMINALS. WIND DIR EXPECTED TO RANGE BTWN 300 AND 320
MAGNETIC ON SUN...GENERALLY JUST LEFT OF 310 MAG FOR KJFK/KEWR AND
JUST RIGHT FOR KLGA.

CIGS COULD BECOME BROKEN FOR A PERIOD SUNDAY LATE MORNING AND
DURING THE AFTERNOON.

WINDS AND GUSTS GRADUALLY SUBSIDE SUN EVE.

5 Day General Aviation Outlook:

.OUTLOOK FOR 00Z MONDAY THROUGH THURSDAY.
.SUN NIGHT-TUE...VFR. NW WINDS G25KT SUN EVE...HIGHEST NYC
METRO...SUBSIDING SUN NIGHT.
.WED...MVFR OR LOWER POSSIBLE WITH CHANCE SHRA.
.THU...VFR.


NY Metro Terminal Aviation Weather Summary: (Explanation of Color Coding)
NOTE: All Wind Directions are TRUE (add 13 degrees for magnetic directions). Tail and Crosswind Calculations do account for the magnetic deviation of runways.

Click on the Airport Below for Specific Information at that Terminal

TAF Overview JFK TAF LGA TAF EWR TAF TEB TAF HPN TAF ISP TAF

Jump to AirSpace Impacts Section Condensed "lite" version of SPA page
**************************************************************************************
KJFK Terminal Weather: (Wind Directions Are True, Except Where Noted, ADD 13 degrees for Magnetic)

5MIN KJFK 260555Z 27007KT 10SM BKN060 OVC075 16/08 
     A2956 350 62 500 280/07 RMK AO2
5MIN KJFK 260550Z 26007KT 10SM BKN055 OVC070 16/08 
     A2956 350 62 500 270/07 RMK AO2 SLP011 T01560083 10172 20150 57017
********************************************
****        MAGNETIC DIRECTIONS         ****
********************************************
KJFK 10/26/2014 05:59:33 GMT 270 07 KT
KJFK 10/26/2014 05:57:33 GMT 270 07 KT
KJFK 10/26/2014 05:55:33 GMT 270 06 KT
KJFK 10/26/2014 05:53:33 GMT 270 06 KT
KJFK 10/26/2014 05:51:33 GMT 260 06 KT
KJFK 10/26/2014 05:49:33 GMT 260 07 KT
KJFK 10/26/2014 05:47:33 GMT 260 07 KT
KJFK 10/26/2014 05:45:33 GMT 260 07 KT
KJFK 10/26/2014 05:43:33 GMT 260 08 KT
KJFK 10/26/2014 05:41:33 GMT 270 07 KT
SANA35 KJFK 260600
METAR KJFK 260551Z 26007KT 10SM BKN055 OVC070 16/08 A2956 RMK AO2 SLP011
      T01560083 10172 20150 56014
FTNA35 KJFK 260548 RRG
KJFK 260540Z 2606/2712 27012G18KT P6SM BKN050
     FM260800 29013G22KT P6SM SCT050
     FM261200 29016G27KT P6SM SCT050
     FM261500 29022G33KT P6SM BKN050
     FM262300 29016G26KT P6SM SCT050
     FM270200 29014G21KT P6SM FEW050
     FM270700 29013KT P6SM FEW050
KJFK Forecaster Comments Not Available at This Time
jfk

JFK Hourly Forecast Temperature (C)

JFK Hourly TMPS
**************************************************************************************
KLGA Terminal Weather: (Wind Directions Are True, Except Where Noted, ADD 13 degrees for Magnetic)

5MIN KLGA 260555Z 29013G18KT 10SM SCT070 OVC110 16/08 
     A2955 370 59 600 300/13G18 RMK AO2
5MIN KLGA 260550Z 28010KT 10SM BKN070 OVC110 16/09 
     A2955 370 62 600 300/10 RMK AO2 RAE18 SLP006 P0000 60000 T01610089 10178 
     20156 56019
********************************************
****        MAGNETIC DIRECTIONS         ****
********************************************
KLGA 10/26/2014 05:59:55 GMT 300 11 G16KT
KLGA 10/26/2014 05:57:55 GMT 300 10 G16KT
KLGA 10/26/2014 05:55:55 GMT 300 12 KT
KLGA 10/26/2014 05:53:55 GMT 310 11 KT
KLGA 10/26/2014 05:51:55 GMT 300 09 KT
KLGA 10/26/2014 05:49:54 GMT 290 09 KT
KLGA 10/26/2014 05:47:54 GMT 290 10 KT
KLGA 10/26/2014 05:45:54 GMT 280 08 KT
KLGA 10/26/2014 05:43:54 GMT 280 08 KT
KLGA 10/26/2014 05:41:54 GMT 280 11 KT
SAUS70 KLGA 260600
METAR KLGA 260551Z 28012KT 10SM BKN070 OVC110 16/09 A2955 RMK AO2 RAE18
     SLP006 P0000 60000 T01610089 10178 20156 56010
FTUS80 KLGA 260542 RRC
KLGA 260540Z 2606/2706 28013G19KT P6SM BKN050
     FM260800 29014G22KT P6SM SCT050
     FM261200 29017G26KT P6SM SCT050
     FM261500 29022G32KT P6SM BKN050
     FM262300 29016G26KT P6SM FEW050
     FM270200 29014G21KT P6SM FEW050
KLGA Forecaster Comments Not Available at This Time
lga


**************************************************************************************

KEWR Terminal Weather: (Wind Directions Are True, Except Where Noted, ADD 13 degrees for Magnetic)

5MIN KEWR 260555Z 28010KT 10SM FEW075 OVC100 16/08 
     A2956 350 59 500 290/10 RMK AO2
5MIN KEWR 260550Z 27010KT 10SM FEW049 BKN065 OVC110 
     16/08 A2957 350 57 600 280/10 RMK AO2 WSHFT 0445 SLP011 T01610078 10178 
     20150 56016
********************************************
****        MAGNETIC DIRECTIONS         ****
********************************************
KEWR 10/26/2014 05:59:28 GMT 300 12 G17KT
KEWR 10/26/2014 05:57:28 GMT 290 12 G17KT
KEWR 10/26/2014 05:55:28 GMT 300 13 G17KT
KEWR 10/26/2014 05:53:28 GMT 300 11 G17KT
KEWR 10/26/2014 05:51:28 GMT 290 11 KT
KEWR 10/26/2014 05:49:28 GMT 290 11 KT
KEWR 10/26/2014 05:47:28 GMT 290 10 KT
KEWR 10/26/2014 05:45:28 GMT 280 08 KT
KEWR 10/26/2014 05:43:28 GMT 280 09 KT
KEWR 10/26/2014 05:41:28 GMT 280 09 KT
SAUS70 KEWR 260600
METAR KEWR 260551Z 27010KT 10SM FEW049 BKN065 OVC110 16/08 A2956 RMK AO2
     WSHFT 0445 SLP011 T01610078 10178 20150 58011
FTUS80 KEWR 260542 RRA
KEWR 260540Z 2606/2712 28011G16KT P6SM SCT050 BKN080
     FM260800 29012G20KT P6SM SCT050
     FM261200 29016G25KT P6SM SCT050
     FM261500 29020G30KT P6SM BKN050
     FM262300 29015G25KT P6SM FEW050
     FM270200 29012G20KT P6SM FEW050
     FM270700 29011KT P6SM FEW050
KEWR Forecaster Comments Not Available at This Time
ewr
Afternoon EWR Haze Potential Forecast: KEWR Haze Forecast Not Available at This Time
IS NOT AVAILABLE AT THIS TIME


******************************************************************************

KTEB Terminal Weather:
SAUS80 KTEB 260600
METAR KTEB 260551Z 31006KT 10SM SCT085 OVC110 15/09 A2955 RMK AO2 RAE47
     SLP007 P0000 60001 T01500089 10172 20150 56007
FTUS80 KTEB 260542 RRC
KTEB 260540Z 2606/2706 27010KT P6SM BKN050
     FM260800 30010G16KT P6SM SCT050
     FM261200 30014G23KT P6SM SCT050
     FM261500 30019G29KT P6SM BKN050
     FM262200 30014G22KT P6SM FEW050
     FM270100 30010KT P6SM FEW050
KTEB Forecaster Comments Not Available at This Time
teb

 


**************************************************************************************

KHPN Terminal Weather:
SAUS70 KHPN 260500 RRC
METAR KHPN 260456Z 29008KT 10SM -RA FEW045 BKN060 14/08 A2956 RMK AO2
     RAB41 SLP010 P0000 T01440078 401830061
FTUS80 KHPN 260542 RRA
KHPN 260540Z 2606/2706 28008KT P6SM BKN060
     FM260800 30010G16KT P6SM SCT050
     FM261200 30013G22KT P6SM SCT050
     FM261500 30016G28KT P6SM BKN050
     FM262200 30014G22KT P6SM FEW050
     FM270200 29011KT P6SM FEW050 AMD NOT SKED
KHPN Forecaster Comments Not Available at This Time
HPN


******************************************************************************

KISP Terminal Weather:
SAUS70 KISP 260500 RRD
METAR KISP 260456Z AUTO 23008KT 10SM FEW100 15/08 A2953 RMK AO2 SLP999
     T01500083 401940056
FTUS80 KISP 260542 RRB
KISP 260540Z 2606/2706 25012KT P6SM BKN050
      TEMPO 2606/2608 30015G25KT 6SM -SHRA
     FM260900 29012G18KT P6SM SCT050
     FM261200 30014G24KT P6SM SCT050
     FM261500 30018G30KT P6SM SCT050
     FM262200 30014G22KT P6SM FEW050
     FM270400 30011KT P6SM FEW050
KISP Forecaster Comments Not Available at This Time
ISP

 


ZNY SWAP Season Information

(ZNY SWAP STATEMENT) (Click for PDF File) (ZNY BRIEFING) (Click for PDF File)

*******************************************************
***        NY AIR ROUTE TRAFFIC CONTROL CENTER      ***
***                DAILY SWAP STATEMENT             ***
*******************************************************
NY AIR ROUTE TRAFFIC CONTROL CENTER
DAILY SWAP STATEMENT
WEDNESDAY OCTOBER 22, 2014
SWAP IS POSSIBLE AFT 15Z.
MOSTLY -SHRA WILL CONTINUE ACROSS ZNY TODAY. ALTHOUGH TSRA WILL 
MOSTLY REMAIN OFFSHORE...OCNL EMBD TS WITH TOPS TO FL340 ARE PSBL IN 
NY/PHL TRACON AIRSPACE THRU THE AFTN.

ADDT'L INFO:
AZEZU-PAEPR-HANRI(L453-M201):  IMPACTS PSBL L453 BTN AZEZU AND 
PAEPR. 
DITCH: BRIEF IMPACTS PSBL.
EAST GATES: BRIEF IMPACTS PSBL.
TOMORROW MORNINGS SWAP OUTLOOK:  SWAP IS NOT EXPECTED.
$$
MMD


N90 AirSpace Impacts

N90 ZNY Gate TSTM Forecast    SWAP Day One Forecast

SWAP Day One Forecast    SWAP Day Two Outlook

National Collaborative Convective Forecast Product (CCFP) Forecasts (Mar-Oct)


Vertical Wind Profile
Untitled Document